Terminal Aerodrome Forecast
Issued by NWS

Home | Current Version | Previous Version | Graphics & Text | Print | Product List | Glossary On
Versions: 1 2 3 4 5 6 7 8 9 10 11 12 13 14 15 16 17 18 19 20
000
FTUS43 KBIS 301700
TAFMOT
TAF
KMOT 301740Z 3018/0118 09011KT 5SM -SHRA BR OVC002
      TEMPO 3018/3021 2SM SHRA BR OVC006
     FM302100 10013KT P6SM OVC008
     FM010100 05008KT 3SM SHRA BR OVC006
     FM010600 24010KT 2SM -SHRA BR OVC002
     FM011600 27017G25KT P6SM BKN030=

USA.gov is the U.S. government's official web portal to all federal, state and local government web resources and services.